createdAt,value
2022-09-26T06:36:44.495Z,1784.00
2022-09-26T06:37:44.452Z,1880.00
2022-09-26T06:38:44.455Z,1936.00
2022-09-26T06:39:44.444Z,1960.00
2022-09-26T06:40:44.443Z,1980.00
2022-09-26T06:41:44.411Z,1984.00
2022-09-26T06:42:44.399Z,1968.00
2022-09-26T06:43:44.387Z,1996.00
2022-09-26T06:44:44.396Z,2012.00
2022-09-26T06:45:44.361Z,2028.00
2022-09-26T06:46:44.462Z,2036.00
2022-09-26T06:47:44.336Z,1996.00
2022-09-26T06:48:44.324Z,1948.00
2022-09-26T06:49:44.333Z,1880.00
2022-09-26T06:50:44.300Z,1800.00
2022-09-26T06:51:44.287Z,1652.00
2022-09-26T06:52:44.310Z,1620.00
2022-09-26T06:53:44.279Z,1728.00
2022-09-26T06:54:44.263Z,1820.00
2022-09-26T06:55:44.259Z,1908.00
2022-09-26T06:56:44.264Z,1904.00
2022-09-26T06:57:44.225Z,1928.00
2022-09-26T06:58:44.208Z,1940.00
2022-09-26T06:59:44.204Z,2024.00
2022-09-26T07:00:44.474Z,2260.00
2022-09-26T07:01:44.337Z,2424.00
2022-09-26T07:02:44.180Z,2532.00
2022-09-26T07:03:45.953Z,2664.00
2022-09-26T07:04:44.144Z,2728.00
2022-09-26T07:05:44.136Z,2664.00
2022-09-26T07:06:44.140Z,2556.00
2022-09-26T07:07:44.140Z,2448.00
2022-09-26T07:09:01.347Z,2420.00
2022-09-26T07:09:45.091Z,2404.00
2022-09-26T07:10:44.078Z,2360.00
2022-09-26T07:12:12.434Z,2240.00
2022-09-26T07:12:45.068Z,2076.00
2022-09-26T07:13:44.039Z,1904.00
2022-09-26T07:14:44.025Z,1744.00
2022-09-26T07:15:44.067Z,1660.00
2022-09-26T07:16:44.016Z,1608.00
2022-09-26T07:17:43.995Z,1604.00
2022-09-26T07:18:43.992Z,1644.00
2022-09-26T07:19:43.980Z,1672.00
2022-09-26T07:20:43.957Z,1696.00
2022-09-26T07:21:43.961Z,1692.00
2022-09-26T07:22:43.956Z,1672.00
2022-09-26T07:23:43.923Z,1680.00
2022-09-26T07:24:43.970Z,1688.00
2022-09-26T07:25:43.899Z,1716.00
2022-09-26T07:26:43.894Z,1744.00
2022-09-26T07:27:43.897Z,1764.00
2022-09-26T07:28:43.873Z,1776.00
2022-09-26T07:29:43.882Z,1788.00
2022-09-26T07:30:43.853Z,1808.00
2022-09-26T07:31:43.890Z,1840.00
2022-09-26T07:32:43.838Z,1884.00
2022-09-26T07:33:43.817Z,1928.00
2022-09-26T07:34:43.807Z,1976.00
2022-09-26T07:35:43.789Z,2020.00
2022-09-26T07:36:43.783Z,2056.00
2022-09-26T07:37:43.765Z,2056.00
2022-09-26T07:38:43.784Z,2040.00
2022-09-26T07:39:43.741Z,1992.00
2022-09-26T07:40:43.931Z,1972.00
2022-09-26T07:41:43.733Z,1956.00
2022-09-26T07:42:54.413Z,1952.00
2022-09-26T07:45:44.672Z,1956.00
2022-09-26T07:46:43.754Z,1916.00
2022-09-26T07:47:43.655Z,1832.00
2022-09-26T07:48:43.639Z,1688.00
2022-09-26T07:49:43.643Z,1552.00
2022-09-26T07:50:43.617Z,1460.00
2022-09-26T07:51:43.614Z,1496.00
2022-09-26T07:52:43.601Z,1596.00
2022-09-26T07:53:43.602Z,1680.00
2022-09-26T07:54:43.577Z,1736.00
2022-09-26T07:55:43.589Z,1740.00
2022-09-26T07:56:43.598Z,1720.00
2022-09-26T07:57:43.543Z,1692.00
2022-09-26T07:58:43.525Z,1632.00
2022-09-26T07:59:43.530Z,1604.00
2022-09-26T08:00:43.521Z,1576.00
2022-09-26T08:01:43.549Z,1504.00
2022-09-26T08:02:43.543Z,1420.00
2022-09-26T08:03:43.472Z,1344.00
2022-09-26T08:04:43.463Z,1272.00
2022-09-26T08:05:43.502Z,1248.00
2022-09-26T08:06:43.440Z,1284.00
2022-09-26T08:07:43.424Z,1292.00
2022-09-26T08:08:43.427Z,1244.00
2022-09-26T08:09:43.408Z,1156.00
2022-09-26T08:10:43.403Z,1120.00
2022-09-26T08:11:43.391Z,1156.00
2022-09-26T08:12:43.387Z,1168.00
2022-09-26T08:13:43.364Z,1196.00
2022-09-26T08:14:43.343Z,1184.00
2022-09-26T08:15:43.398Z,1164.00
2022-09-26T08:16:43.328Z,1132.00
2022-09-26T08:17:43.323Z,1100.00
2022-09-26T08:18:43.299Z,1108.00
2022-09-26T08:19:43.300Z,1112.00
2022-09-26T08:20:43.321Z,1152.00
2022-09-26T08:21:43.266Z,1216.00
2022-09-26T08:22:43.258Z,1312.00
2022-09-26T08:23:43.242Z,1408.00
2022-09-26T08:24:43.241Z,1452.00
2022-09-26T08:25:43.226Z,1492.00
2022-09-26T08:26:44.639Z,1496.00
2022-09-26T08:27:43.204Z,1460.00
2022-09-26T08:28:43.217Z,1440.00
2022-09-26T08:29:43.175Z,1448.00
2022-09-26T08:30:43.166Z,1428.00
2022-09-26T08:31:43.227Z,1380.00
2022-09-26T08:32:43.158Z,1348.00
2022-09-26T08:33:43.139Z,1300.00
2022-09-26T08:34:43.124Z,1276.00
2022-09-26T08:35:43.114Z,1252.00
2022-09-26T08:36:43.096Z,1212.00
2022-09-26T08:37:43.099Z,1208.00
2022-09-26T08:38:43.084Z,1180.00
2022-09-26T08:39:43.059Z,1212.00
2022-09-26T08:40:43.140Z,1248.00
2022-09-26T08:41:43.047Z,1280.00
2022-09-26T08:42:43.044Z,1332.00
2022-09-26T08:43:43.017Z,1396.00
2022-09-26T08:44:43.023Z,1476.00
2022-09-26T08:45:46.798Z,1560.00
2022-09-26T08:46:43.112Z,1620.00
2022-09-26T08:47:42.978Z,1656.00
2022-09-26T08:48:42.976Z,1728.00
2022-09-26T08:49:42.958Z,1796.00
2022-09-26T08:50:42.942Z,1860.00
2022-09-26T08:51:42.926Z,1864.00
2022-09-26T08:52:42.911Z,1748.00
2022-09-26T08:53:42.935Z,1596.00
2022-09-26T08:54:42.889Z,1476.00
2022-09-26T08:55:42.891Z,1396.00
2022-09-26T08:56:42.870Z,1436.00
2022-09-26T08:57:42.862Z,1528.00
2022-09-26T08:58:42.860Z,1568.00
2022-09-26T08:59:42.855Z,1540.00
2022-09-26T09:00:42.860Z,1488.00
2022-09-26T09:01:42.938Z,1460.00
2022-09-26T09:02:42.983Z,1468.00
2022-09-26T09:03:42.805Z,1500.00
2022-09-26T09:04:42.814Z,1564.00
2022-09-26T09:05:42.770Z,1576.00
2022-09-26T09:06:42.753Z,1532.00
2022-09-26T09:07:42.749Z,1456.00
2022-09-26T09:08:42.735Z,1432.00
2022-09-26T09:09:42.749Z,1404.00
2022-09-26T09:10:42.710Z,1452.00
2022-09-26T09:11:42.696Z,1480.00
2022-09-26T09:12:42.692Z,1560.00
2022-09-26T09:13:42.693Z,1616.00
2022-09-26T09:14:42.662Z,1640.00
2022-09-26T09:15:42.729Z,1652.00
2022-09-26T09:16:42.669Z,1676.00
2022-09-26T09:17:42.649Z,1632.00
2022-09-26T09:18:42.618Z,1672.00
2022-09-26T09:19:42.622Z,1676.00
2022-09-26T09:20:42.630Z,1644.00
2022-09-26T09:21:42.614Z,1536.00
2022-09-26T09:22:42.571Z,1420.00
2022-09-26T09:23:42.567Z,1360.00
2022-09-26T09:24:42.555Z,1360.00
2022-09-26T09:25:42.548Z,1412.00
2022-09-26T09:28:04.076Z,1412.00
2022-09-26T09:28:43.511Z,1356.00
2022-09-26T09:29:43.067Z,1292.00
2022-09-26T09:30:42.481Z,1288.00
2022-09-26T09:31:42.549Z,1344.00
2022-09-26T09:32:42.484Z,1320.00
2022-09-26T09:33:42.454Z,1280.00
2022-09-26T09:34:42.443Z,1212.00
2022-09-26T09:35:42.430Z,1156.00
2022-09-26T09:36:42.419Z,1132.00
2022-09-26T09:37:42.422Z,1112.00
2022-09-26T09:38:42.397Z,1156.00
2022-09-26T09:39:42.379Z,1204.00
2022-09-26T09:40:42.422Z,1220.00
2022-09-26T09:41:42.361Z,1236.00
2022-09-26T09:42:42.361Z,1268.00
2022-09-26T09:43:42.344Z,1312.00
2022-09-26T09:44:46.497Z,1308.00
2022-09-26T09:45:42.319Z,1308.00
2022-09-26T09:46:42.367Z,1304.00
2022-09-26T09:47:42.291Z,1296.00
2022-09-26T09:48:42.337Z,1260.00
2022-09-26T09:49:42.276Z,1252.00
2022-09-26T09:50:42.252Z,1248.00
2022-09-26T09:51:42.248Z,1252.00
2022-09-26T09:52:42.236Z,1324.00
2022-09-26T09:53:42.239Z,1372.00
2022-09-26T09:54:42.213Z,1444.00
2022-09-26T09:55:42.203Z,1492.00
2022-09-26T09:56:42.184Z,1512.00
2022-09-26T09:57:42.181Z,1496.00
2022-09-26T09:58:42.194Z,1376.00
2022-09-26T09:59:42.157Z,1312.00
2022-09-26T10:00:42.150Z,1300.00
2022-09-26T10:01:42.137Z,1288.00
2022-09-26T10:02:42.149Z,1244.00
2022-09-26T10:03:42.112Z,1188.00
2022-09-26T10:04:42.142Z,1160.00
2022-09-26T10:05:42.081Z,1164.00
2022-09-26T10:06:46.579Z,1116.00
2022-09-26T10:07:43.085Z,1016.00
2022-09-26T10:08:42.046Z,1064.00
2022-09-26T10:09:42.086Z,1080.00
2022-09-26T10:10:42.033Z,1128.00
2022-09-26T10:11:42.021Z,1084.00
2022-09-26T10:12:42.010Z,1000.00
2022-09-26T10:13:41.992Z,1036.00
2022-09-26T10:14:42.004Z,1152.00
2022-09-26T10:15:42.025Z,1200.00
2022-09-26T10:16:41.955Z,1280.00
2022-09-26T10:17:41.947Z,1280.00
2022-09-26T10:18:41.942Z,1268.00
2022-09-26T10:19:41.927Z,1260.00
2022-09-26T10:20:41.953Z,1308.00
2022-09-26T10:21:41.901Z,1348.00
2022-09-26T10:22:41.895Z,1476.00
2022-09-26T10:23:41.884Z,1496.00
2022-09-26T10:24:41.871Z,1624.00
2022-09-26T10:25:41.877Z,1716.00
2022-09-26T10:26:41.844Z,1720.00
2022-09-26T10:27:41.838Z,1800.00
2022-09-26T10:28:41.826Z,1808.00
2022-09-26T10:29:41.810Z,1884.00
2022-09-26T10:30:41.809Z,2072.00
2022-09-26T10:31:43.077Z,2232.00
2022-09-26T10:32:41.779Z,2344.00
2022-09-26T10:33:41.769Z,2280.00
2022-09-26T10:34:41.750Z,2180.00
2022-09-26T10:35:41.767Z,2132.00
2022-09-26T10:36:41.757Z,2004.00
2022-09-26T10:37:41.733Z,2016.00
2022-09-26T10:38:41.713Z,2104.00
2022-09-26T10:39:41.702Z,2136.00
2022-09-26T10:40:41.784Z,2076.00
2022-09-26T10:41:41.674Z,1972.00
2022-09-26T10:42:41.684Z,1964.00
2022-09-26T10:43:41.650Z,1852.00
2022-09-26T10:44:41.683Z,1804.00
2022-09-26T10:45:41.673Z,1680.00
2022-09-26T10:46:41.709Z,1572.00
2022-09-26T10:47:41.643Z,1584.00
2022-09-26T10:48:41.598Z,1528.00
2022-09-26T10:49:41.600Z,1448.00
2022-09-26T10:50:41.590Z,1380.00
2022-09-26T10:51:41.607Z,1432.00
2022-09-26T10:52:41.580Z,1512.00
2022-09-26T10:53:41.553Z,1524.00
2022-09-26T10:54:41.549Z,1536.00
2022-09-26T10:55:41.513Z,1464.00
2022-09-26T10:56:41.511Z,1464.00
2022-09-26T10:57:41.495Z,1428.00
2022-09-26T10:58:41.484Z,1416.00
2022-09-26T10:59:41.475Z,1384.00
2022-09-26T11:00:41.457Z,1348.00
2022-09-26T11:01:41.562Z,1348.00
2022-09-26T11:02:41.452Z,1364.00
2022-09-26T11:03:41.521Z,1376.00
2022-09-26T11:04:41.419Z,1476.00
2022-09-26T11:05:41.400Z,1644.00
2022-09-26T11:06:41.414Z,1868.00
2022-09-26T11:07:41.376Z,1928.00
2022-09-26T11:08:41.387Z,2016.00
2022-09-26T11:09:41.354Z,2548.00
2022-09-26T11:10:41.346Z,2744.00
2022-09-26T11:11:41.353Z,2844.00
2022-09-26T11:12:41.331Z,2960.00
2022-09-26T11:13:41.308Z,3056.00
2022-09-26T11:14:41.312Z,3080.00
2022-09-26T11:15:41.343Z,2884.00
2022-09-26T11:16:41.297Z,2584.00
2022-09-26T11:17:41.307Z,2368.00
2022-09-26T11:18:41.257Z,2248.00
2022-09-26T11:19:41.309Z,2296.00
2022-09-26T11:20:41.320Z,2552.00
2022-09-26T11:21:41.349Z,2760.00
2022-09-26T11:22:41.210Z,2896.00
2022-09-26T11:23:41.201Z,2772.00
2022-09-26T11:24:41.237Z,2684.00
2022-09-26T11:25:41.182Z,2596.00
2022-09-26T11:26:41.160Z,2568.00
2022-09-26T11:27:41.164Z,2688.00
2022-09-26T11:28:41.141Z,2852.00
2022-09-26T11:29:41.133Z,2884.00
2022-09-26T11:30:41.123Z,2828.00
2022-09-26T11:31:41.206Z,2648.00
2022-09-26T11:32:41.371Z,2500.00
2022-09-26T11:33:41.198Z,2372.00
2022-09-26T11:34:41.080Z,2320.00
2022-09-26T11:35:41.057Z,2340.00
2022-09-26T11:36:41.060Z,2396.00
2022-09-26T11:37:41.059Z,2536.00
2022-09-26T11:38:41.023Z,2680.00
2022-09-26T11:39:41.022Z,2848.00
2022-09-26T11:40:41.153Z,2916.00
2022-09-26T11:41:40.997Z,2812.00
2022-09-26T11:42:41.000Z,2664.00
2022-09-26T11:43:40.969Z,2532.00
2022-09-26T11:44:40.957Z,2488.00
2022-09-26T11:45:45.181Z,2480.00
2022-09-26T11:46:41.999Z,2556.00
2022-09-26T11:47:40.925Z,2652.00
2022-09-26T11:48:40.932Z,2776.00
2022-09-26T11:49:40.911Z,2896.00
2022-09-26T11:50:40.898Z,3040.00
2022-09-26T11:51:40.876Z,3072.00
2022-09-26T11:52:44.289Z,3108.00
2022-09-26T11:53:41.880Z,3084.00
2022-09-26T11:54:40.842Z,3116.00
2022-09-26T11:55:40.963Z,3088.00
2022-09-26T11:56:40.848Z,3092.00
2022-09-26T11:57:40.821Z,3056.00
2022-09-26T11:58:40.797Z,3016.00
2022-09-26T11:59:40.801Z,2920.00
2022-09-26T12:00:40.777Z,2952.00
2022-09-26T12:01:40.765Z,2916.00
